Time;durP1;ratioP1;P1;durP2;ratioP2;P2;SDS_P1;SDS_P2;PMS_P1;PMS_P2;Temp;Humidity;BMP_temperature;BMP_pressure;BME280_temperature;BME280_humidity;BME280_pressure;Samples;Min_cycle;Max_cycle;Signal;HPM_P1;HPM_P2
2022/02/06 00:02:20;;;;;;;12.23;3.80;;;;;;;3.19;100.00;100168.63;6070753;23;20029;-83
2022/02/06 00:04:49;;;;;;;6.60;3.43;;;;;;;3.24;100.00;100159.06;6046303;23;20026;-81
2022/02/06 00:07:16;;;;;;;6.53;3.47;;;;;;;3.23;100.00;100154.72;6070455;23;20073;-80
2022/02/06 00:09:46;;;;;;;6.07;3.20;;;;;;;3.26;100.00;100153.84;6043636;23;20394;-82
2022/02/06 00:12:34;;;;;;;7.30;3.83;;;;;;;3.21;100.00;100140.81;6053669;23;20018;-81
2022/02/06 00:15:02;;;;;;;6.83;3.40;;;;;;;3.24;100.00;100126.88;6092987;23;20018;-82
2022/02/06 00:17:29;;;;;;;6.00;3.27;;;;;;;3.22;100.00;100126.88;6046594;23;20852;-82
2022/02/06 00:19:57;;;;;;;5.37;3.20;;;;;;;3.19;100.00;100121.63;6068051;23;20031;-82
2022/02/06 00:22:30;;;;;;;9.17;4.87;;;;;;;3.19;100.00;100118.16;6069971;23;20022;-82
2022/02/06 00:32:49;;;;;;;6.73;3.40;;;;;;;3.22;100.00;100094.69;6095630;23;20058;-83
2022/02/06 00:35:28;;;;;;;6.23;3.00;;;;;;;3.16;100.00;100082.50;6072600;23;20031;-81
2022/02/06 00:38:26;;;;;;;7.13;3.57;;;;;;;3.18;100.00;100072.91;6093771;23;21282;-81
2022/02/06 00:41:14;;;;;;;6.63;3.07;;;;;;;3.28;100.00;100084.22;6076843;23;20041;-82
2022/02/06 00:43:42;;;;;;;8.43;3.63;;;;;;;3.29;100.00;100060.75;6096542;23;20021;-81
2022/02/06 00:46:12;;;;;;;4.47;2.83;;;;;;;3.31;100.00;100068.59;6070814;23;20094;-82
2022/02/06 00:48:42;;;;;;;6.30;2.70;;;;;;;3.34;100.00;100059.00;6094150;23;20054;-80
2022/02/06 00:51:17;;;;;;;4.27;2.67;;;;;;;3.32;100.00;100059.88;6071417;23;20049;-81
2022/02/06 00:53:43;;;;;;;10.53;3.17;;;;;;;3.31;100.00;100060.75;6046365;23;20018;-82
2022/02/06 00:56:11;;;;;;;5.23;2.43;;;;;;;3.38;100.00;100041.59;6071309;23;20026;-80
2022/02/06 00:58:37;;;;;;;3.23;2.27;;;;;;;3.38;100.00;100031.16;6070895;23;20339;-81
2022/02/06 01:01:05;;;;;;;3.37;2.60;;;;;;;3.41;100.00;100032.88;6047160;23;20049;-80
2022/02/06 01:03:34;;;;;;;5.20;2.60;;;;;;;3.49;100.00;100029.38;6069527;23;20026;-82
2022/02/06 01:06:02;;;;;;;7.80;3.20;;;;;;;3.50;100.00;100025.03;6071210;23;20108;-83
2022/02/06 01:08:29;;;;;;;7.73;2.97;;;;;;;3.53;100.00;100030.22;6045138;23;20031;-82
2022/02/06 01:11:07;;;;;;;;;;;;;;;3.59;100.00;100020.66;6074352;23;20026;-83
2022/02/06 01:13:50;;;;;;;5.33;2.17;;;;;;;3.65;100.00;100006.72;6115469;23;19949;-81
2022/02/06 01:16:23;;;;;;;6.67;3.20;;;;;;;3.65;100.00;99997.13;6073906;23;20023;-83
2022/02/06 01:18:58;;;;;;;10.57;2.50;;;;;;;3.66;100.00;100000.63;6070237;23;20343;-82
2022/02/06 01:34:22;;;;;;;2.90;2.20;;;;;;;3.76;100.00;99978.81;6095418;23;20018;-82
2022/02/06 01:42:28;;;;;;;6.67;2.40;;;;;;;3.88;100.00;99952.63;6074771;23;20026;-82
2022/02/06 02:00:59;;;;;;;4.03;2.10;;;;;;;4.09;96.40;99912.44;6068338;23;20050;-82
2022/02/06 02:06:29;;;;;;;5.43;2.57;;;;;;;4.14;95.10;99900.22;6096476;23;20634;-81
2022/02/06 02:17:06;;;;;;;3.33;2.00;;;;;;;4.23;94.31;99881.00;6095748;23;20403;-81
2022/02/06 02:25:07;;;;;;;4.77;2.00;;;;;;;4.24;96.52;99861.81;6070397;23;20022;-82
2022/02/06 02:27:59;;;;;;;4.53;2.40;;;;;;;4.24;97.84;99857.44;6078338;23;20046;-82
2022/02/06 02:33:43;;;;;;;4.20;2.00;;;;;;;4.20;100.00;99860.97;6072790;23;20022;-81
2022/02/06 02:49:38;;;;;;;3.77;2.10;;;;;;;3.91;100.00;99823.69;6093015;23;20078;-82
2022/02/06 02:52:13;;;;;;;3.33;1.93;;;;;;;3.89;100.00;99823.72;6045293;23;20030;-83
2022/02/06 02:54:42;;;;;;;5.28;2.63;;;;;;;3.86;100.00;99815.88;6068622;23;20030;-83
2022/02/06 02:57:23;;;;;;;4.17;2.43;;;;;;;3.78;100.00;99816.81;6069810;23;20074;-82
2022/02/06 03:00:18;;;;;;;4.67;2.37;;;;;;;3.78;100.00;99804.63;6069870;23;20465;-83
2022/02/06 03:02:45;;;;;;;11.33;3.03;;;;;;;3.74;100.00;99792.47;6073491;23;20082;-82
2022/02/06 03:05:11;;;;;;;6.40;2.37;;;;;;;3.68;100.00;99792.50;6068633;23;20085;-83
2022/02/06 03:07:38;;;;;;;5.67;2.70;;;;;;;3.62;100.00;99789.94;6095959;23;20037;-84
2022/02/06 03:10:05;;;;;;;3.57;2.30;;;;;;;3.62;100.00;99792.56;6098007;23;20063;-79
2022/02/06 03:12:34;;;;;;;3.23;2.00;;;;;;;3.59;100.00;99782.09;6072689;23;20021;-77
2022/02/06 03:15:11;;;;;;;6.90;2.50;;;;;;;3.58;100.00;99767.31;6099014;23;20077;-81
2022/02/06 03:17:56;;;;;;;5.13;2.47;;;;;;;3.56;100.00;99756.03;6082003;23;20125;-85
2022/02/06 03:20:23;;;;;;;5.70;2.10;;;;;;;3.53;100.00;99750.81;6103546;23;20022;-80
2022/02/06 03:22:52;;;;;;;4.83;2.57;;;;;;;3.55;100.00;99754.28;6097025;23;20042;-83
2022/02/06 03:25:21;;;;;;;4.97;3.27;;;;;;;3.56;100.00;99756.88;6099034;23;20021;-81
2022/02/06 03:27:49;;;;;;;4.87;2.43;;;;;;;3.58;100.00;99752.53;6073942;23;20445;-80
2022/02/06 03:30:16;;;;;;;5.70;2.40;;;;;;;3.57;100.00;99742.09;6073923;23;20104;-80
2022/02/06 03:32:43;;;;;;;4.33;2.70;;;;;;;3.54;100.00;99742.13;6073297;23;20357;-82
2022/02/06 03:35:10;;;;;;;8.07;2.90;;;;;;;3.44;100.00;99743.91;6098474;23;20026;-80
2022/02/06 03:37:39;;;;;;;4.10;2.43;;;;;;;3.50;100.00;99735.16;6098518;23;20041;-81
2022/02/06 03:40:08;;;;;;;4.07;2.17;;;;;;;3.54;100.00;99734.28;6072473;23;20026;-80
2022/02/06 03:42:43;;;;;;;5.60;2.30;;;;;;;3.52;100.00;99731.66;6051082;23;20036;-81
2022/02/06 03:45:17;;;;;;;5.37;2.50;;;;;;;3.56;100.00;99730.78;6098130;23;20096;-80
2022/02/06 03:47:56;;;;;;;5.22;2.20;;;;;;;3.55;100.00;99718.59;6098919;23;20022;-81
2022/02/06 03:50:32;;;;;;;6.03;2.80;;;;;;;3.58;100.00;99722.91;6098385;23;20462;-83
2022/02/06 03:52:59;;;;;;;4.90;2.43;;;;;;;3.58;100.00;99718.56;6052024;23;20030;-80
2022/02/06 03:55:27;;;;;;;4.53;2.47;;;;;;;3.56;100.00;99704.66;6076338;23;20026;-83
2022/02/06 03:57:53;;;;;;;6.30;2.60;;;;;;;3.56;100.00;99706.41;6074864;23;20030;-83
2022/02/06 04:00:23;;;;;;;4.90;2.93;;;;;;;3.58;100.00;99704.66;6099739;23;20022;-80
2022/02/06 04:02:52;;;;;;;5.03;2.70;;;;;;;3.57;100.00;99702.91;6074388;23;20533;-80
2022/02/06 04:05:19;;;;;;;4.07;2.17;;;;;;;3.54;100.00;99692.50;6076487;23;20033;-80
2022/02/06 04:07:46;;;;;;;3.07;2.17;;;;;;;3.55;100.00;99683.78;6044509;23;20022;-83
2022/02/06 04:10:16;;;;;;;3.70;2.80;;;;;;;3.48;100.00;99684.69;6069944;23;20477;-79
2022/02/06 04:12:44;;;;;;;5.17;2.30;;;;;;;3.51;100.00;99684.66;6071232;23;20022;-83
2022/02/06 04:15:19;;;;;;;5.13;2.10;;;;;;;3.57;100.00;99669.81;6047511;23;20018;-79
2022/02/06 04:17:51;;;;;;;3.73;2.63;;;;;;;3.56;100.00;99668.09;6072430;23;20018;-82
2022/02/06 04:20:17;;;;;;;2.47;1.80;;;;;;;3.56;100.00;99648.94;6071259;23;20022;-80
2022/02/06 04:22:44;;;;;;;3.37;2.17;;;;;;;3.54;100.00;99658.56;6069227;23;20022;-81
2022/02/06 04:25:10;;;;;;;3.47;2.27;;;;;;;3.53;100.00;99656.78;6070971;23;20062;-81
2022/02/06 04:27:37;;;;;;;6.27;2.30;;;;;;;3.59;100.00;99651.53;6045261;23;20023;-80
2022/02/06 04:30:04;;;;;;;3.73;2.27;;;;;;;3.59;100.00;99636.72;6068940;23;20022;-79
2022/02/06 04:32:32;;;;;;;6.10;2.60;;;;;;;3.60;100.00;99637.59;6070245;23;20534;-80
2022/02/06 04:35:00;;;;;;;7.00;2.60;;;;;;;3.60;100.00;99627.13;6069027;23;20041;-80
2022/02/06 04:37:38;;;;;;;3.50;2.57;;;;;;;3.58;100.00;99623.69;6045255;23;20026;-81
2022/02/06 04:46:18;;;;;;;8.23;2.30;;;;;;;3.53;100.00;99615.91;6073780;23;20058;-80
2022/02/06 04:49:25;;;;;;;4.40;3.37;;;;;;;3.51;100.00;99608.94;6075086;23;20019;-80
2022/02/06 04:55:13;;;;;;;5.77;2.40;;;;;;;3.49;100.00;99590.69;6033034;23;20026;-81
2022/02/06 05:14:24;;;;;;;6.00;2.37;;;;;;;3.51;100.00;99575.00;6075158;23;20445;-80
2022/02/06 05:26:58;;;;;;;5.53;2.37;;;;;;;3.50;100.00;99547.16;6103044;23;20086;-80
2022/02/06 05:34:18;;;;;;;8.87;2.77;;;;;;;3.48;100.00;99541.09;6078612;23;20381;-82
2022/02/06 05:36:44;;;;;;;4.93;2.70;;;;;;;3.51;100.00;99533.22;6088372;23;20022;-82
2022/02/06 05:39:11;;;;;;;3.57;2.43;;;;;;;3.49;100.00;99527.16;6085030;23;20065;-81
2022/02/06 05:41:38;;;;;;;5.47;2.70;;;;;;;3.47;100.00;99534.16;6083639;23;20025;-82
2022/02/06 05:44:05;;;;;;;4.17;2.43;;;;;;;3.38;100.00;99519.44;6099856;23;20462;-83
2022/02/06 05:46:32;;;;;;;3.63;2.77;;;;;;;3.48;100.00;99517.59;6051759;23;20069;-83
2022/02/06 05:48:58;;;;;;;3.50;2.50;;;;;;;3.50;100.00;99515.81;6073861;23;20413;-83
2022/02/06 05:51:25;;;;;;;4.80;2.60;;;;;;;3.51;100.00;99515.81;6098710;23;20022;-84
2022/02/06 05:53:52;;;;;;;5.33;2.90;;;;;;;3.49;100.00;99508.88;6074027;23;20026;-82
2022/02/06 05:56:19;;;;;;;8.13;3.37;;;;;;;3.54;100.00;99509.72;6075649;23;20033;-84
2022/02/06 05:58:46;;;;;;;7.20;2.90;;;;;;;3.55;100.00;99500.97;6074161;23;20022;-83
2022/02/06 06:01:12;;;;;;;5.10;2.70;;;;;;;3.55;100.00;99494.00;6099196;23;20401;-84
2022/02/06 06:03:39;;;;;;;3.83;2.30;;;;;;;3.48;100.00;99496.69;6074580;23;20025;-82
2022/02/06 06:06:06;;;;;;;6.83;2.47;;;;;;;3.55;100.00;99487.94;6099599;23;20026;-82
2022/02/06 06:08:32;;;;;;;3.53;2.40;;;;;;;3.44;100.00;99489.78;6098107;23;20397;-83
2022/02/06 06:10:59;;;;;;;5.10;2.70;;;;;;;3.47;100.00;99484.53;6100923;23;20026;-82
2022/02/06 06:13:26;;;;;;;6.70;2.57;;;;;;;3.51;100.00;99476.63;6075891;23;20034;-83
2022/02/06 06:15:55;;;;;;;2.93;2.53;;;;;;;3.56;100.00;99479.22;6101715;23;20023;-82
2022/02/06 06:18:21;;;;;;;3.80;2.70;;;;;;;3.49;100.00;99488.84;6100516;23;20073;-83
2022/02/06 06:20:50;;;;;;;5.40;2.70;;;;;;;3.57;100.00;99486.16;6101510;23;20409;-82
2022/02/06 06:23:17;;;;;;;4.53;3.00;;;;;;;3.58;100.00;99482.66;6100178;23;20049;-83
2022/02/06 06:25:47;;;;;;;4.80;3.13;;;;;;;3.57;100.00;99479.19;6077611;23;20742;-82
2022/02/06 06:28:19;;;;;;;3.43;2.53;;;;;;;3.64;100.00;99473.03;6101060;23;20022;-82
2022/02/06 06:30:46;;;;;;;4.03;2.87;;;;;;;3.59;100.00;99466.97;6076188;23;20469;-82
2022/02/06 06:33:14;;;;;;;5.00;2.67;;;;;;;3.65;100.00;99471.28;6075514;23;20026;-82
2022/02/06 06:35:53;;;;;;;5.13;2.90;;;;;;;3.64;100.00;99467.78;6101775;23;20018;-81
2022/02/06 06:38:20;;;;;;;4.17;2.70;;;;;;;3.67;100.00;99461.66;6099693;23;20073;-82
2022/02/06 06:40:46;;;;;;;4.90;2.67;;;;;;;3.69;100.00;99449.44;6124805;23;20046;-82
2022/02/06 06:43:13;;;;;;;3.33;2.03;;;;;;;3.68;100.00;99452.94;6075781;23;20030;-82
2022/02/06 06:45:40;;;;;;;3.07;2.37;;;;;;;3.71;100.00;99452.06;6076445;23;20025;-82
2022/02/06 06:48:06;;;;;;;4.30;2.77;;;;;;;3.68;100.00;99445.09;6074629;23;20053;-80
2022/02/06 06:50:34;;;;;;;3.57;2.37;;;;;;;3.72;100.00;99441.59;6099723;23;20026;-82
2022/02/06 06:53:03;;;;;;;5.90;3.00;;;;;;;3.65;100.00;99445.16;6075365;23;20026;-82
2022/02/06 06:55:33;;;;;;;4.53;2.40;;;;;;;3.73;100.00;99442.44;6053083;23;20022;-82
2022/02/06 06:58:14;;;;;;;5.80;2.97;;;;;;;3.76;100.00;99448.47;6051510;23;20059;-82
2022/02/06 07:00:55;;;;;;;4.87;2.73;;;;;;;3.83;100.00;99439.69;6055125;23;20032;-82
2022/02/06 07:03:23;;;;;;;4.67;2.60;;;;;;;3.77;100.00;99437.16;6077447;23;20069;-83
2022/02/06 07:05:50;;;;;;;5.27;2.60;;;;;;;3.75;100.00;99433.69;6076615;23;20014;-82
2022/02/06 07:08:17;;;;;;;3.87;2.20;;;;;;;3.77;100.00;99431.06;6099510;23;20097;-82
2022/02/06 07:10:44;;;;;;;6.47;2.63;;;;;;;3.80;100.00;99426.69;6100466;23;20022;-82
2022/02/06 07:13:13;;;;;;;3.60;2.47;;;;;;;3.80;100.00;99421.47;6098168;23;20030;-82
2022/02/06 07:15:40;;;;;;;6.07;2.83;;;;;;;3.85;100.00;99424.00;6077640;23;20330;-83
2022/02/06 07:18:07;;;;;;;3.53;2.70;;;;;;;3.82;100.00;99424.03;6074856;23;20037;-82
2022/02/06 07:20:35;;;;;;;3.07;2.50;;;;;;;3.89;100.00;99417.84;6077500;23;20022;-82
2022/02/06 07:23:03;;;;;;;3.83;2.43;;;;;;;3.88;100.00;99408.31;6098733;23;20089;-83
2022/02/06 07:25:30;;;;;;;4.67;2.60;;;;;;;3.89;100.00;99410.88;6076889;23;20025;-81
2022/02/06 07:27:57;;;;;;;4.37;2.63;;;;;;;3.95;100.00;99416.03;6098948;23;20484;-82
2022/02/06 07:30:24;;;;;;;3.73;2.40;;;;;;;3.94;100.00;99403.81;6075246;23;20026;-82
2022/02/06 07:32:50;;;;;;;4.60;2.60;;;;;;;3.93;100.00;99396.88;6075568;23;20461;-82
2022/02/06 07:35:17;;;;;;;4.73;2.47;;;;;;;3.98;100.00;99389.00;6075568;23;20018;-82
2022/02/06 07:37:45;;;;;;;4.40;2.60;;;;;;;4.02;100.00;99395.03;6051701;23;20674;-82
2022/02/06 07:40:12;;;;;;;5.00;2.30;;;;;;;4.00;100.00;99383.72;6074663;23;20030;-82
2022/02/06 07:42:39;;;;;;;3.60;2.43;;;;;;;4.00;100.00;99381.97;6098596;23;20025;-82
2022/02/06 07:45:10;;;;;;;5.80;2.60;;;;;;;4.06;100.00;99376.69;6098911;23;20076;-82
2022/02/06 07:47:38;;;;;;;6.70;3.03;;;;;;;3.95;100.00;99376.84;6098735;23;20081;-84
2022/02/06 07:50:08;;;;;;;4.83;2.60;;;;;;;4.04;100.00;99369.75;6099460;23;20077;-82
2022/02/06 07:52:34;;;;;;;3.57;2.83;;;;;;;4.03;100.00;99371.47;6099070;23;20025;-88
2022/02/06 07:55:03;;;;;;;4.70;2.50;;;;;;;4.09;100.00;99375.75;6050261;23;20045;-83
2022/02/06 07:57:30;;;;;;;3.53;2.40;;;;;;;4.06;100.00;99371.44;6075531;23;20036;-82
2022/02/06 07:59:57;;;;;;;9.43;3.00;;;;;;;4.01;100.00;99372.41;6072688;23;20334;-83
2022/02/06 08:02:23;;;;;;;4.80;2.57;;;;;;;4.08;100.00;99374.91;6075834;23;20025;-83
2022/02/06 08:04:50;;;;;;;4.73;3.00;;;;;;;4.13;100.00;99367.00;6096289;23;20596;-82
2022/02/06 08:07:18;;;;;;;4.57;3.10;;;;;;;4.12;100.00;99370.47;6098890;23;20046;-81
2022/02/06 08:12:12;;;;;;;3.60;2.53;;;;;;;4.15;100.00;99354.75;6073291;23;20026;-82
2022/02/06 08:14:59;;;;;;;3.70;2.23;;;;;;;4.21;100.00;99354.69;6073098;23;20076;-83
2022/02/06 08:17:28;;;;;;;6.93;3.20;;;;;;;4.20;100.00;99345.97;6079024;23;20029;-82
2022/02/06 08:19:55;;;;;;;2.97;1.90;;;;;;;4.17;100.00;99352.97;6096435;23;20026;-82
2022/02/06 08:22:23;;;;;;;6.00;2.60;;;;;;;4.18;100.00;99352.09;6098147;23;20030;-82
2022/02/06 08:24:50;;;;;;;6.73;2.80;;;;;;;4.18;100.00;99334.66;6096702;23;20468;-81
2022/02/06 08:27:18;;;;;;;3.97;2.70;;;;;;;4.23;100.00;99340.69;6098286;23;20022;-82
2022/02/06 08:29:46;;;;;;;5.10;2.20;;;;;;;4.26;100.00;99328.44;6072856;23;20517;-82
2022/02/06 08:32:14;;;;;;;2.93;2.27;;;;;;;4.28;100.00;99322.28;6075519;23;20077;-82
2022/02/06 08:34:46;;;;;;;2.30;2.10;;;;;;;4.29;100.00;99324.06;6073710;23;20080;-81
2022/02/06 08:37:12;;;;;;;3.20;2.70;;;;;;;4.34;100.00;99318.72;6074733;23;20028;-81
2022/02/06 08:39:40;;;;;;;5.53;2.27;;;;;;;4.36;100.00;99315.19;6096439;23;20650;-81
2022/02/06 08:42:10;;;;;;;3.73;2.00;;;;;;;4.36;100.00;99325.66;6097516;23;20439;-81
2022/02/06 08:44:38;;;;;;;3.87;2.13;;;;;;;4.39;100.00;99314.28;6097021;23;20029;-82
2022/02/06 08:47:09;;;;;;;3.10;2.00;;;;;;;4.35;100.00;99316.09;6076582;23;20449;-82
2022/02/06 08:49:36;;;;;;;4.13;2.70;;;;;;;4.36;100.00;99312.56;6074897;23;20033;-81
2022/02/06 08:52:04;;;;;;;4.63;3.00;;;;;;;4.34;100.00;99318.72;6075386;23;20022;-81
2022/02/06 08:54:33;;;;;;;4.17;2.90;;;;;;;4.34;100.00;99314.34;6097978;23;20021;-81
2022/02/06 08:57:21;;;;;;;4.30;2.70;;;;;;;4.45;100.00;99309.81;6077987;23;20025;-81
2022/02/06 08:59:48;;;;;;;2.47;2.20;;;;;;;4.44;100.00;99305.47;6051810;23;20029;-81
2022/02/06 09:02:15;;;;;;;3.37;2.30;;;;;;;4.45;100.00;99293.25;6075794;23;20049;-81
2022/02/06 09:04:42;;;;;;;3.30;2.37;;;;;;;4.49;100.00;99295.78;6097451;23;20018;-81
2022/02/06 09:07:09;;;;;;;3.53;2.70;;;;;;;4.45;100.00;99291.50;6077382;23;20069;-83
2022/02/06 09:09:39;;;;;;;4.37;2.10;;;;;;;4.51;100.00;99296.63;6099320;23;20037;-80
2022/02/06 09:12:09;;;;;;;4.57;2.90;;;;;;;4.55;100.00;99292.22;6074307;23;20065;-80
2022/02/06 09:14:37;;;;;;;3.43;2.60;;;;;;;4.61;100.00;99292.09;6097006;23;20022;-83
2022/02/06 09:17:04;;;;;;;3.40;2.57;;;;;;;4.68;100.00;99280.63;6102958;23;20045;-82
2022/02/06 09:19:33;;;;;;;10.73;7.23;;;;;;;4.68;100.00;99283.25;6076095;23;20022;-83
2022/02/06 09:22:00;;;;;;;13.30;9.83;;;;;;;4.73;100.00;99270.09;6075390;23;20026;-82
2022/02/06 09:24:27;;;;;;;3.10;1.90;;;;;;;4.76;100.00;99280.47;6072986;23;20022;-83
2022/02/06 09:26:54;;;;;;;2.90;2.60;;;;;;;4.77;100.00;99276.97;6075239;23;20025;-81
2022/02/06 09:29:20;;;;;;;4.00;3.17;;;;;;;4.87;100.00;99273.28;6073123;23;20022;-80
2022/02/06 09:31:51;;;;;;;4.80;3.43;;;;;;;4.83;100.00;99266.41;6074084;23;20026;-80
2022/02/06 09:36:46;;;;;;;4.17;1.70;;;;;;;4.88;100.00;99261.94;6075537;23;20334;-80
2022/02/06 09:39:14;;;;;;;3.40;2.07;;;;;;;4.90;100.00;99261.91;6072980;23;20048;-80
2022/02/06 09:41:43;;;;;;;2.00;1.80;;;;;;;4.88;100.00;99259.31;6074936;23;20112;-80
2022/02/06 09:44:10;;;;;;;2.70;2.33;;;;;;;4.86;100.00;99253.25;6097101;23;20025;-80
2022/02/06 09:46:49;;;;;;;1.37;1.27;;;;;;;4.96;100.00;99246.06;6080529;23;20028;-80
2022/02/06 09:49:18;;;;;;;1.93;1.63;;;;;;;5.00;100.00;99243.38;6098415;23;20101;-80
2022/02/06 09:51:45;;;;;;;3.10;2.80;;;;;;;5.04;100.00;99249.38;6074891;23;20021;-80
2022/02/06 09:54:16;;;;;;;2.07;1.53;;;;;;;5.06;100.00;99234.53;6097636;23;20022;-82
2022/02/06 09:56:46;;;;;;;1.50;1.13;;;;;;;5.11;100.00;99219.56;6075240;23;20053;-82
2022/02/06 09:59:20;;;;;;;1.83;1.20;;;;;;;5.14;100.00;99222.16;6072714;23;20438;-82
2022/02/06 10:01:53;;;;;;;1.63;1.20;;;;;;;5.24;100.00;99222.81;6100694;23;20034;-80
2022/02/06 10:04:25;;;;;;;1.67;0.90;;;;;;;5.21;100.00;99215.88;6076853;23;20407;-80
2022/02/06 10:07:06;;;;;;;1.87;1.23;;;;;;;5.34;100.00;99212.09;6099851;23;20018;-79
2022/02/06 10:09:54;;;;;;;0.90;0.80;;;;;;;5.35;100.00;99208.56;6053154;23;20085;-81
2022/02/06 10:12:21;;;;;;;0.80;0.80;;;;;;;5.36;100.00;99197.19;6122839;23;20453;-79
2022/02/06 10:14:49;;;;;;;1.00;0.80;;;;;;;5.37;100.00;99196.28;6073948;23;20018;-80
2022/02/06 10:17:17;;;;;;;1.10;1.00;;;;;;;5.45;100.00;99196.13;6077257;23;20048;-80
2022/02/06 10:19:51;;;;;;;1.20;1.00;;;;;;;5.45;100.00;99196.13;6078779;23;20438;-79
2022/02/06 10:22:23;;;;;;;1.20;1.00;;;;;;;5.44;100.00;99186.53;6101427;23;20049;-79
2022/02/06 10:25:03;;;;;;;1.33;0.83;;;;;;;5.50;100.00;99180.31;6103976;23;20014;-80
2022/02/06 10:27:48;;;;;;;1.40;0.70;;;;;;;5.49;100.00;99168.97;6105112;23;20038;-80
2022/02/06 10:30:36;;;;;;;1.60;0.97;;;;;;;5.57;100.00;99166.16;6104778;23;20021;-80
2022/02/06 10:33:06;;;;;;;2.33;1.00;;;;;;;5.61;100.00;99155.56;6087140;23;20045;-80
2022/02/06 10:35:38;;;;;;;2.17;1.53;;;;;;;5.65;100.00;99151.13;6132729;23;20042;-80
2022/02/06 10:38:27;;;;;;;1.47;1.00;;;;;;;5.69;100.00;99147.50;6082516;23;20409;-80
2022/02/06 10:41:13;;;;;;;1.60;0.97;;;;;;;5.80;100.00;99135.03;6081251;23;20026;-80
2022/02/06 10:44:02;;;;;;;1.33;1.20;;;;;;;5.81;100.00;99118.41;6127243;23;20032;-80
2022/02/06 10:46:31;;;;;;;1.40;1.10;;;;;;;5.91;100.00;99103.31;6083155;23;20014;-79
2022/02/06 10:49:12;;;;;;;1.43;1.10;;;;;;;5.93;100.00;99107.63;6079737;23;20026;-80
2022/02/06 10:51:44;;;;;;;1.70;1.10;;;;;;;5.90;100.00;99096.34;6105119;23;20044;-82
2022/02/06 10:54:32;;;;;;;1.60;0.90;;;;;;;5.96;100.00;99098.81;6096225;23;20034;-79
2022/02/06 10:57:10;;;;;;;1.20;0.97;;;;;;;6.01;100.00;99096.94;6098797;23;20017;-79
2022/02/06 10:59:43;;;;;;;1.47;0.97;;;;;;;6.00;100.00;99079.47;6051204;23;20026;-79
2022/02/06 11:02:20;;;;;;;8.47;1.50;;;;;;;5.94;100.00;99079.63;6054845;23;20026;-79
2022/02/06 11:05:14;;;;;;;0.90;0.80;;;;;;;6.02;100.00;99068.94;6098316;23;20026;-80
2022/02/06 11:07:54;;;;;;;2.97;1.27;;;;;;;5.98;100.00;99060.31;6101236;23;20022;-79
2022/02/06 11:10:23;;;;;;;1.67;0.80;;;;;;;5.99;100.00;99054.16;6100454;23;20389;-80
2022/02/06 11:12:52;;;;;;;1.10;0.90;;;;;;;5.98;100.00;99041.97;6075095;23;20025;-79
2022/02/06 11:15:27;;;;;;;1.20;0.87;;;;;;;6.01;100.00;99039.25;6077891;23;20024;-80
2022/02/06 11:18:13;;;;;;;1.27;0.80;;;;;;;6.11;100.00;99035.47;6076652;23;20093;-80
2022/02/06 11:21:04;;;;;;;1.10;0.90;;;;;;;6.09;100.00;99039.91;6100753;23;20022;-81
2022/02/06 11:23:37;;;;;;;1.30;1.03;;;;;;;6.03;100.00;99032.19;6077111;23;20025;-81
2022/02/06 11:26:10;;;;;;;1.60;1.27;;;;;;;6.09;100.00;99028.56;6105478;23;20418;-80
2022/02/06 11:28:42;;;;;;;2.23;1.03;;;;;;;6.10;100.00;99011.91;6081673;23;20018;-81
2022/02/06 11:31:11;;;;;;;8.00;4.30;;;;;;;6.12;100.00;99020.59;6099392;23;20104;-81
2022/02/06 11:33:38;;;;;;;9.93;5.70;;;;;;;6.11;100.00;99009.25;6095941;23;20032;-81
2022/02/06 11:36:18;;;;;;;3.60;2.33;;;;;;;6.13;100.00;99006.56;6097621;23;20088;-80
2022/02/06 11:45:18;;;;;;;3.47;1.30;;;;;;;6.11;100.00;98983.03;6075605;23;20126;-82
2022/02/06 11:47:51;;;;;;;1.63;1.30;;;;;;;6.17;100.00;98963.66;6097625;23;20026;-80
2022/02/06 11:50:18;;;;;;;1.73;1.03;;;;;;;6.18;100.00;98963.59;6073152;23;20026;-81
2022/02/06 11:52:54;;;;;;;1.27;1.03;;;;;;;6.11;100.00;98959.44;6073531;23;20579;-81
2022/02/06 11:55:50;;;;;;;1.00;0.90;;;;;;;6.14;100.00;98950.63;6098136;23;20101;-80
2022/02/06 11:58:28;;;;;;;1.47;0.90;;;;;;;6.14;100.00;98951.50;6071112;23;20083;-81
2022/02/06 12:01:07;;;;;;;1.13;0.70;;;;;;;6.11;100.00;98942.84;6074346;23;20080;-80
2022/02/06 12:04:00;;;;;;;1.50;1.20;;;;;;;6.11;100.00;98932.34;6075753;23;20101;-80
2022/02/06 12:06:36;;;;;;;1.60;0.90;;;;;;;6.16;100.00;98922.59;6097186;23;20022;-80
2022/02/06 12:09:03;;;;;;;1.57;1.30;;;;;;;6.20;100.00;98917.19;6096457;23;20345;-80
2022/02/06 12:11:33;;;;;;;2.00;1.10;;;;;;;6.21;100.00;98902.31;6097702;23;20399;-82
2022/02/06 12:14:19;;;;;;;0.90;0.90;;;;;;;6.18;100.00;98892.78;6074531;23;20026;-79
2022/02/06 12:17:15;;;;;;;2.83;1.47;;;;;;;6.21;100.00;98876.97;6074313;23;20032;-81
2022/02/06 12:19:42;;;;;;;0.83;0.70;;;;;;;6.23;100.00;98874.31;6118978;23;20026;-80
2022/02/06 12:22:28;;;;;;;1.50;0.70;;;;;;;6.14;100.00;98867.59;6097671;23;20026;-79
2022/02/06 12:25:17;;;;;;;0.83;0.70;;;;;;;6.29;100.00;98862.75;6094340;23;20073;-79
2022/02/06 12:27:44;;;;;;;1.07;0.80;;;;;;;6.30;100.00;98848.72;6094960;23;20022;-81
2022/02/06 12:30:19;;;;;;;1.43;0.80;;;;;;;6.38;100.00;98852.81;6069483;23;20385;-78
2022/02/06 12:32:46;;;;;;;1.50;0.93;;;;;;;6.37;100.00;98839.75;6094507;23;20076;-80
2022/02/06 12:38:01;;;;;;;1.10;1.00;;;;;;;6.40;100.00;98824.81;6072104;23;20826;-80
2022/02/06 12:40:28;;;;;;;1.23;1.10;;;;;;;6.45;100.00;98812.38;6073301;23;20073;-79
2022/02/06 12:43:01;;;;;;;1.97;1.10;;;;;;;6.51;100.00;98800.81;6071825;23;20390;-80
2022/02/06 12:45:30;;;;;;;1.43;1.10;;;;;;;6.48;100.00;98795.69;6075094;23;20409;-79
2022/02/06 12:48:02;;;;;;;2.60;0.93;;;;;;;6.45;100.00;98793.16;6097527;23;20105;-80
2022/02/06 12:50:32;;;;;;;3.47;1.37;;;;;;;6.61;100.00;98788.25;6073998;23;20022;-80
2022/02/06 12:53:00;;;;;;;1.90;0.90;;;;;;;6.59;100.00;98777.81;6075615;23;20030;-81
2022/02/06 12:55:29;;;;;;;2.70;0.97;;;;;;;6.65;100.00;98774.13;6098727;23;20022;-81
2022/02/06 12:57:56;;;;;;;1.03;0.80;;;;;;;6.58;100.00;98762.13;6070673;23;20025;-80
2022/02/06 13:00:36;;;;;;;2.00;1.07;;;;;;;6.59;100.00;98762.06;6096417;23;20022;-80
2022/02/06 13:03:18;;;;;;;2.77;1.20;;;;;;;6.62;100.00;98746.22;6093526;23;20037;-81
2022/02/06 13:06:00;;;;;;;1.30;0.97;;;;;;;6.59;100.00;98734.97;6093934;23;20090;-80
2022/02/06 13:08:28;;;;;;;1.13;0.90;;;;;;;6.57;100.00;98724.53;6093245;23;20752;-81
2022/02/06 13:11:02;;;;;;;1.00;0.80;;;;;;;6.60;100.00;98716.56;6099382;23;20021;-79
2022/02/06 13:13:51;;;;;;;2.50;0.90;;;;;;;6.54;100.00;98718.53;6102768;23;20069;-79
2022/02/06 13:22:01;;;;;;;1.97;1.00;;;;;;;6.42;100.00;98685.72;6078484;23;20025;-80
2022/02/06 13:25:00;;;;;;;1.20;0.90;;;;;;;6.32;100.00;98665.97;6079493;23;20129;-80
2022/02/06 13:27:46;;;;;;;1.57;1.00;;;;;;;6.33;100.00;98670.31;6077355;23;20072;-81
2022/02/06 13:30:29;;;;;;;1.30;1.20;;;;;;;6.29;100.00;98658.19;6058258;23;20033;-81
2022/02/06 13:33:05;;;;;;;1.17;1.07;;;;;;;6.26;100.00;98655.69;6100437;23;20074;-82
2022/02/06 13:35:53;;;;;;;3.00;1.03;;;;;;;6.24;100.00;98650.50;6078608;23;20077;-81
2022/02/06 13:38:20;;;;;;;1.33;1.10;;;;;;;6.24;100.00;98633.94;6085032;23;20394;-80
2022/02/06 13:40:50;;;;;;;1.73;1.10;;;;;;;6.20;100.00;98627.91;6077651;23;20076;-81
2022/02/06 13:43:24;;;;;;;2.60;1.30;;;;;;;6.17;100.00;98614.94;6137664;23;20021;-84
2022/02/06 13:45:56;;;;;;;2.13;1.20;;;;;;;6.14;100.00;98605.41;6080028;23;20032;-86
2022/02/06 13:48:26;;;;;;;4.20;1.77;;;;;;;6.08;100.00;98607.38;6079664;23;20049;-85
2022/02/06 13:51:00;;;;;;;2.70;1.50;;;;;;;6.08;100.00;98584.66;6079227;23;20029;-83
2022/02/06 13:53:29;;;;;;;2.25;1.20;;;;;;;6.08;100.00;98597.75;6079955;23;20032;-89
2022/02/06 13:56:01;;;;;;;3.77;1.43;;;;;;;6.04;100.00;98576.94;6083822;23;20017;-87
2022/02/06 13:58:29;;;;;;;2.03;1.60;;;;;;;6.02;100.00;98578.75;6079084;23;20080;-86
2022/02/06 14:01:02;;;;;;;1.90;1.50;;;;;;;5.98;100.00;98557.06;6128518;23;20326;-85
2022/02/06 14:03:43;;;;;;;2.43;1.40;;;;;;;5.90;100.00;98565.19;6102424;23;20025;-86
2022/02/06 14:06:17;;;;;;;2.80;1.58;;;;;;;5.91;100.00;98552.94;6102874;23;20056;-83
2022/02/06 14:09:20;;;;;;;2.67;1.40;;;;;;;5.90;100.00;98540.72;6082093;23;20022;-85
2022/02/06 14:11:57;;;;;;;4.33;3.10;;;;;;;5.83;100.00;98524.34;6080560;23;20026;-83